sensor_id;sensor_type;location;lat;lon;timestamp;pressure;altitude;pressure_sealevel;temperature;humidity
51123;BME280;37162;41.724;13.346;2023-08-17T00:00:10;96856.47;;;24.19;70.75
51123;BME280;37162;41.724;13.346;2023-08-17T00:02:38;96856.19;;;24.20;70.73
51123;BME280;37162;41.724;13.346;2023-08-17T00:05:04;96858.09;;;24.20;70.87
51123;BME280;37162;41.724;13.346;2023-08-17T00:07:31;96858.91;;;24.20;70.65
51123;BME280;37162;41.724;13.346;2023-08-17T00:09:56;96858.09;;;24.20;70.69
51123;BME280;37162;41.724;13.346;2023-08-17T00:12:22;96851.84;;;24.19;70.77
51123;BME280;37162;41.724;13.346;2023-08-17T00:14:47;96860.00;;;24.19;70.58
51123;BME280;37162;41.724;13.346;2023-08-17T00:17:13;96861.91;;;24.19;70.82
51123;BME280;37162;41.724;13.346;2023-08-17T00:19:38;96861.91;;;24.19;70.52
51123;BME280;37162;41.724;13.346;2023-08-17T00:22:04;96857.53;;;24.18;70.59
51123;BME280;37162;41.724;13.346;2023-08-17T00:24:29;96859.44;;;24.17;70.70
51123;BME280;37162;41.724;13.346;2023-08-17T00:26:54;96861.34;;;24.17;70.34
51123;BME280;37162;41.724;13.346;2023-08-17T00:29:20;96864.06;;;24.17;70.45
51123;BME280;37162;41.724;13.346;2023-08-17T00:31:45;96869.50;;;24.17;70.52
51123;BME280;37162;41.724;13.346;2023-08-17T00:34:11;96867.88;;;24.16;70.46
51123;BME280;37162;41.724;13.346;2023-08-17T00:36:36;96867.59;;;24.17;70.57
51123;BME280;37162;41.724;13.346;2023-08-17T00:39:01;96874.13;;;24.16;70.42
51123;BME280;37162;41.724;13.346;2023-08-17T00:41:27;96865.97;;;24.16;70.78
51123;BME280;37162;41.724;13.346;2023-08-17T00:43:54;96865.97;;;24.16;70.78
51123;BME280;37162;41.724;13.346;2023-08-17T00:46:20;96869.50;;;24.17;70.75
51123;BME280;37162;41.724;13.346;2023-08-17T00:48:47;96865.16;;;24.16;70.61
51123;BME280;37162;41.724;13.346;2023-08-17T00:51:13;96868.97;;;24.15;70.65
51123;BME280;37162;41.724;13.346;2023-08-17T00:53:39;96870.59;;;24.16;70.52
51123;BME280;37162;41.724;13.346;2023-08-17T00:56:05;96873.59;;;24.14;70.63
51123;BME280;37162;41.724;13.346;2023-08-17T00:58:31;96870.06;;;24.14;70.79
51123;BME280;37162;41.724;13.346;2023-08-17T01:00:57;96874.66;;;24.13;70.64
51123;BME280;37162;41.724;13.346;2023-08-17T01:03:22;96874.13;;;24.11;70.52
51123;BME280;37162;41.724;13.346;2023-08-17T01:05:48;96863.53;;;24.15;70.59
51123;BME280;37162;41.724;13.346;2023-08-17T01:08:14;96868.16;;;24.14;70.65
51123;BME280;37162;41.724;13.346;2023-08-17T01:10:59;96868.97;;;24.15;70.81
51123;BME280;37162;41.724;13.346;2023-08-17T01:14:31;96869.78;;;24.15;70.93
51123;BME280;37162;41.724;13.346;2023-08-17T01:17:02;96870.59;;;24.16;70.67
51123;BME280;37162;41.724;13.346;2023-08-17T01:19:29;96874.41;;;24.15;70.66
51123;BME280;37162;41.724;13.346;2023-08-17T01:22:03;96868.41;;;24.13;70.61
51123;BME280;37162;41.724;13.346;2023-08-17T01:24:28;96864.63;;;24.14;70.62
51123;BME280;37162;41.724;13.346;2023-08-17T01:26:54;96862.72;;;24.14;70.98
51123;BME280;37162;41.724;13.346;2023-08-17T01:29:20;96860.81;;;24.15;70.69
51123;BME280;37162;41.724;13.346;2023-08-17T01:31:47;96854.59;;;24.14;70.67
51123;BME280;37162;41.724;13.346;2023-08-17T01:34:19;96851.31;;;24.12;70.46
51123;BME280;37162;41.724;13.346;2023-08-17T01:36:54;96855.66;;;24.13;70.77
51123;BME280;37162;41.724;13.346;2023-08-17T01:39:25;96839.16;;;24.05;70.69
51123;BME280;37162;41.724;13.346;2023-08-17T01:41:52;96842.38;;;24.07;70.50
51123;BME280;37162;41.724;13.346;2023-08-17T01:44:20;96853.78;;;24.14;70.73
51123;BME280;37162;41.724;13.346;2023-08-17T01:46:46;96846.69;;;24.13;70.69
51123;BME280;37162;41.724;13.346;2023-08-17T01:49:11;96849.16;;;24.14;70.86
51123;BME280;37162;41.724;13.346;2023-08-17T01:51:37;96848.34;;;24.14;70.64
51123;BME280;37162;41.724;13.346;2023-08-17T01:54:03;96840.19;;;24.14;70.78
51123;BME280;37162;41.724;13.346;2023-08-17T01:56:28;96838.28;;;24.14;70.65
51123;BME280;37162;41.724;13.346;2023-08-17T01:58:53;96836.66;;;24.13;70.57
51123;BME280;37162;41.724;13.346;2023-08-17T02:01:19;96833.94;;;24.13;70.63
51123;BME280;37162;41.724;13.346;2023-08-17T02:03:44;96835.84;;;24.13;70.59
51123;BME280;37162;41.724;13.346;2023-08-17T02:06:10;96841.25;;;24.13;70.65
51123;BME280;37162;41.724;13.346;2023-08-17T02:08:37;96828.53;;;24.08;70.36
51123;BME280;37162;41.724;13.346;2023-08-17T02:11:02;96833.69;;;24.10;70.40
51123;BME280;37162;41.724;13.346;2023-08-17T02:13:28;96831.50;;;24.12;70.81
51123;BME280;37162;41.724;13.346;2023-08-17T02:15:53;96835.84;;;24.13;70.75
51123;BME280;37162;41.724;13.346;2023-08-17T02:18:18;96829.59;;;24.12;70.55
51123;BME280;37162;41.724;13.346;2023-08-17T02:20:44;96833.13;;;24.13;70.42
51123;BME280;37162;41.724;13.346;2023-08-17T02:23:10;96818.75;;;24.12;70.49
51123;BME280;37162;41.724;13.346;2023-08-17T02:25:38;96828.78;;;24.12;70.57
51123;BME280;37162;41.724;13.346;2023-08-17T02:28:04;96827.97;;;24.11;70.54
51123;BME280;37162;41.724;13.346;2023-08-17T02:30:29;96835.03;;;24.12;70.54
51123;BME280;37162;41.724;13.346;2023-08-17T02:32:55;96826.06;;;24.12;70.52
51123;BME280;37162;41.724;13.346;2023-08-17T02:35:21;96820.66;;;24.12;70.50
51123;BME280;37162;41.724;13.346;2023-08-17T02:37:46;96822.56;;;24.11;70.53
51123;BME280;37162;41.724;13.346;2023-08-17T02:40:11;96819.03;;;24.11;70.33
51123;BME280;37162;41.724;13.346;2023-08-17T02:42:37;96820.94;;;24.10;70.53
51123;BME280;37162;41.724;13.346;2023-08-17T02:45:05;96815.50;;;24.10;70.34
51123;BME280;37162;41.724;13.346;2023-08-17T02:47:31;96815.50;;;24.10;70.44
51123;BME280;37162;41.724;13.346;2023-08-17T02:49:56;96811.69;;;24.11;70.32
51123;BME280;37162;41.724;13.346;2023-08-17T02:52:22;96806.56;;;24.10;70.23
51123;BME280;37162;41.724;13.346;2023-08-17T02:54:47;96812.78;;;24.10;70.45
51123;BME280;37162;41.724;13.346;2023-08-17T02:57:13;96809.25;;;24.10;70.44
51123;BME280;37162;41.724;13.346;2023-08-17T02:59:38;96802.75;;;24.11;70.57
51123;BME280;37162;41.724;13.346;2023-08-17T03:02:04;96805.47;;;24.11;70.58
51123;BME280;37162;41.724;13.346;2023-08-17T03:04:29;96801.13;;;24.10;70.30
51123;BME280;37162;41.724;13.346;2023-08-17T03:06:55;96806.56;;;24.10;70.48
51123;BME280;37162;41.724;13.346;2023-08-17T03:09:20;96800.31;;;24.09;70.60
51123;BME280;37162;41.724;13.346;2023-08-17T03:11:45;96808.47;;;24.09;70.53
51123;BME280;37162;41.724;13.346;2023-08-17T03:14:11;96799.47;;;24.09;70.45
51123;BME280;37162;41.724;13.346;2023-08-17T03:16:36;96806.81;;;24.08;70.56
51123;BME280;37162;41.724;13.346;2023-08-17T03:19:03;96807.63;;;24.09;70.46
51123;BME280;37162;41.724;13.346;2023-08-17T03:21:28;96806.00;;;24.08;70.21
51123;BME280;37162;41.724;13.346;2023-08-17T03:23:54;96802.19;;;24.09;70.27
51123;BME280;37162;41.724;13.346;2023-08-17T03:26:19;96803.28;;;24.08;70.41
51123;BME280;37162;41.724;13.346;2023-08-17T03:28:45;96804.09;;;24.08;70.30
51123;BME280;37162;41.724;13.346;2023-08-17T03:31:10;96803.03;;;24.09;70.43
51123;BME280;37162;41.724;13.346;2023-08-17T03:33:36;96796.78;;;24.04;70.39
51123;BME280;37162;41.724;13.346;2023-08-17T03:36:03;96801.13;;;24.10;70.42
51123;BME280;37162;41.724;13.346;2023-08-17T03:38:29;96798.94;;;24.07;70.48
51123;BME280;37162;41.724;13.346;2023-08-17T03:40:55;96786.22;;;24.02;70.57
51123;BME280;37162;41.724;13.346;2023-08-17T03:43:20;96790.53;;;24.08;70.34
51123;BME280;37162;41.724;13.346;2023-08-17T03:45:45;96806.00;;;24.08;70.29
51123;BME280;37162;41.724;13.346;2023-08-17T03:48:11;96803.28;;;24.08;70.12
51123;BME280;37162;41.724;13.346;2023-08-17T03:50:37;96802.47;;;24.07;70.23
51123;BME280;37162;41.724;13.346;2023-08-17T03:53:03;96800.84;;;24.06;70.04
51123;BME280;37162;41.724;13.346;2023-08-17T03:55:28;96784.34;;;23.97;70.23
51123;BME280;37162;41.724;13.346;2023-08-17T03:57:54;96807.91;;;24.07;70.12
51123;BME280;37162;41.724;13.346;2023-08-17T04:00:20;96807.91;;;24.07;70.16
51123;BME280;37162;41.724;13.346;2023-08-17T04:02:45;96813.34;;;24.07;70.29
51123;BME280;37162;41.724;13.346;2023-08-17T04:05:10;96810.63;;;24.07;70.43
51123;BME280;37162;41.724;13.346;2023-08-17T04:07:36;96816.84;;;24.08;70.23
51123;BME280;37162;41.724;13.346;2023-08-17T04:10:02;96808.44;;;24.04;70.38
51123;BME280;37162;41.724;13.346;2023-08-17T04:12:28;96807.09;;;24.07;70.44
51123;BME280;37162;41.724;13.346;2023-08-17T04:14:53;96804.38;;;24.07;70.20
51123;BME280;37162;41.724;13.346;2023-08-17T04:17:19;96810.91;;;24.06;70.32
51123;BME280;37162;41.724;13.346;2023-08-17T04:19:46;96801.97;;;24.00;70.18
51123;BME280;37162;41.724;13.346;2023-08-17T04:22:11;96810.91;;;24.06;70.11
51123;BME280;37162;41.724;13.346;2023-08-17T04:24:37;96815.53;;;24.05;70.27
51123;BME280;37162;41.724;13.346;2023-08-17T04:27:03;96814.72;;;24.05;70.33
51123;BME280;37162;41.724;13.346;2023-08-17T04:29:30;96820.97;;;24.05;70.17
51123;BME280;37162;41.724;13.346;2023-08-17T04:31:55;96814.72;;;24.05;70.00
51123;BME280;37162;41.724;13.346;2023-08-17T04:34:21;96816.34;;;24.06;70.04
51123;BME280;37162;41.724;13.346;2023-08-17T04:36:47;96819.88;;;24.06;70.10
51123;BME280;37162;41.724;13.346;2023-08-17T04:39:12;96819.88;;;24.06;70.42
51123;BME280;37162;41.724;13.346;2023-08-17T04:41:38;96814.44;;;24.06;70.43
51123;BME280;37162;41.724;13.346;2023-08-17T04:44:04;96819.88;;;24.06;70.49
51123;BME280;37162;41.724;13.346;2023-08-17T04:46:29;96819.06;;;24.06;70.25
51123;BME280;37162;41.724;13.346;2023-08-17T04:48:55;96812.81;;;24.05;70.06
51123;BME280;37162;41.724;13.346;2023-08-17T04:51:20;96816.34;;;24.06;70.15
51123;BME280;37162;41.724;13.346;2023-08-17T04:53:46;96808.47;;;23.99;70.35
51123;BME280;37162;41.724;13.346;2023-08-17T04:56:11;96813.88;;;24.04;70.27
51123;BME280;37162;41.724;13.346;2023-08-17T04:58:37;96817.44;;;24.05;70.42
51123;BME280;37162;41.724;13.346;2023-08-17T05:01:02;96819.06;;;24.06;70.49
51123;BME280;37162;41.724;13.346;2023-08-17T05:03:28;96826.38;;;24.05;70.26
51123;BME280;37162;41.724;13.346;2023-08-17T05:05:54;96829.91;;;24.06;70.12
51123;BME280;37162;41.724;13.346;2023-08-17T05:08:19;96822.88;;;24.05;70.13
51123;BME280;37162;41.724;13.346;2023-08-17T05:10:47;96831.53;;;24.07;70.16
51123;BME280;37162;41.724;13.346;2023-08-17T05:13:12;96826.91;;;24.07;69.97
51123;BME280;37162;41.724;13.346;2023-08-17T05:15:38;96836.66;;;24.08;70.50
51123;BME280;37162;41.724;13.346;2023-08-17T05:18:04;96832.34;;;24.07;70.06
51123;BME280;37162;41.724;13.346;2023-08-17T05:20:29;96826.09;;;24.07;70.01
51123;BME280;37162;41.724;13.346;2023-08-17T05:22:55;96829.63;;;24.07;69.99
51123;BME280;37162;41.724;13.346;2023-08-17T05:25:21;96828.81;;;24.07;69.67
51123;BME280;37162;41.724;13.346;2023-08-17T05:27:47;96832.34;;;24.07;70.03
51123;BME280;37162;41.724;13.346;2023-08-17T05:30:14;96819.06;;;24.01;69.97
51123;BME280;37162;41.724;13.346;2023-08-17T05:32:40;96827.44;;;24.04;69.79
51123;BME280;37162;41.724;13.346;2023-08-17T05:35:06;96838.84;;;24.06;69.87
51123;BME280;37162;41.724;13.346;2023-08-17T05:37:31;96841.28;;;24.08;70.01
51123;BME280;37162;41.724;13.346;2023-08-17T05:39:57;96839.38;;;24.08;70.04
51123;BME280;37162;41.724;13.346;2023-08-17T05:42:22;96842.91;;;24.09;70.11
51123;BME280;37162;41.724;13.346;2023-08-17T05:44:48;96830.97;;;24.10;69.98
51123;BME280;37162;41.724;13.346;2023-08-17T05:47:13;96834.50;;;24.10;70.07
51123;BME280;37162;41.724;13.346;2023-08-17T05:49:40;96835.31;;;24.11;69.96
51123;BME280;37162;41.724;13.346;2023-08-17T05:52:06;96832.59;;;24.11;69.84
51123;BME280;37162;41.724;13.346;2023-08-17T05:54:32;96832.59;;;24.11;69.97
51123;BME280;37162;41.724;13.346;2023-08-17T05:56:57;96834.22;;;24.12;70.03
51123;BME280;37162;41.724;13.346;2023-08-17T05:59:22;96831.50;;;24.12;69.95
51123;BME280;37162;41.724;13.346;2023-08-17T06:01:48;96835.84;;;24.13;70.31
51123;BME280;37162;41.724;13.346;2023-08-17T06:04:13;96827.69;;;24.13;69.84
51123;BME280;37162;41.724;13.346;2023-08-17T06:06:39;96829.34;;;24.14;70.24
51123;BME280;37162;41.724;13.346;2023-08-17T06:09:04;96820.34;;;24.13;70.18
51123;BME280;37162;41.724;13.346;2023-08-17T06:11:30;96832.06;;;24.14;70.21
51123;BME280;37162;41.724;13.346;2023-08-17T06:13:55;96829.88;;;24.16;70.19
51123;BME280;37162;41.724;13.346;2023-08-17T06:16:21;96831.47;;;24.17;70.29
51123;BME280;37162;41.724;13.346;2023-08-17T06:18:47;96832.28;;;24.17;70.27
51123;BME280;37162;41.724;13.346;2023-08-17T06:21:12;96835.00;;;24.17;70.29
51123;BME280;37162;41.724;13.346;2023-08-17T06:23:37;96831.22;;;24.18;70.27
51123;BME280;37162;41.724;13.346;2023-08-17T06:26:03;96828.22;;;24.20;70.83
51123;BME280;37162;41.724;13.346;2023-08-17T06:28:28;96832.03;;;24.19;70.75
51123;BME280;37162;41.724;13.346;2023-08-17T06:30:55;96828.78;;;24.17;70.46
51123;BME280;37162;41.724;13.346;2023-08-17T06:33:21;96831.47;;;24.17;70.30
51123;BME280;37162;41.724;13.346;2023-08-17T06:35:47;96825.53;;;24.15;70.41
51123;BME280;37162;41.724;13.346;2023-08-17T06:38:12;96818.25;;;24.05;70.28
51123;BME280;37162;41.724;13.346;2023-08-17T06:40:38;96831.22;;;24.18;70.38
51123;BME280;37162;41.724;13.346;2023-08-17T06:43:04;96832.06;;;24.14;70.26
51123;BME280;37162;41.724;13.346;2023-08-17T06:45:31;96827.66;;;24.18;70.19
51123;BME280;37162;41.724;13.346;2023-08-17T06:47:57;96833.94;;;24.18;70.02
51123;BME280;37162;41.724;13.346;2023-08-17T06:50:22;96840.19;;;24.19;70.31
51123;BME280;37162;41.724;13.346;2023-08-17T06:52:47;96835.84;;;24.13;69.89
51123;BME280;37162;41.724;13.346;2023-08-17T06:55:13;96843.72;;;24.19;70.15
51123;BME280;37162;41.724;13.346;2023-08-17T06:57:39;96846.69;;;24.18;70.07
51123;BME280;37162;41.724;13.346;2023-08-17T07:00:05;96845.59;;;24.19;70.19
51123;BME280;37162;41.724;13.346;2023-08-17T07:02:31;96841.81;;;24.15;70.74
51123;BME280;37162;41.724;13.346;2023-08-17T07:04:56;96850.75;;;24.20;70.59
51123;BME280;37162;41.724;13.346;2023-08-17T07:07:22;96854.28;;;24.21;70.39
51123;BME280;37162;41.724;13.346;2023-08-17T07:09:47;96855.09;;;24.21;70.79
51123;BME280;37162;41.724;13.346;2023-08-17T07:12:13;96861.88;;;24.24;70.68
51123;BME280;37162;41.724;13.346;2023-08-17T07:14:38;96851.28;;;24.22;70.25
51123;BME280;37162;41.724;13.346;2023-08-17T07:17:04;96853.72;;;24.24;70.21
51123;BME280;37162;41.724;13.346;2023-08-17T07:19:29;96858.88;;;24.26;70.56
51123;BME280;37162;41.724;13.346;2023-08-17T07:21:55;96856.16;;;24.26;70.20
51123;BME280;37162;41.724;13.346;2023-08-17T07:24:21;96844.50;;;24.20;70.51
51123;BME280;37162;41.724;13.346;2023-08-17T07:26:46;96862.66;;;24.30;70.66
51123;BME280;37162;41.724;13.346;2023-08-17T07:29:12;96856.16;;;24.26;70.40
51123;BME280;37162;41.724;13.346;2023-08-17T07:31:38;96865.09;;;24.31;70.80
51123;BME280;37162;41.724;13.346;2023-08-17T07:34:05;96860.22;;;24.33;70.54
51123;BME280;37162;41.724;13.346;2023-08-17T07:36:31;96866.97;;;24.36;70.81
51123;BME280;37162;41.724;13.346;2023-08-17T07:38:57;96861.03;;;24.34;70.56
51123;BME280;37162;41.724;13.346;2023-08-17T07:41:23;96867.81;;;24.36;70.46
51123;BME280;37162;41.724;13.346;2023-08-17T07:43:48;96841.00;;;24.19;70.46
51123;BME280;37162;41.724;13.346;2023-08-17T07:46:14;96864.56;;;24.39;70.75
51123;BME280;37162;41.724;13.346;2023-08-17T07:48:39;96870.50;;;24.41;70.62
51123;BME280;37162;41.724;13.346;2023-08-17T07:51:04;96865.91;;;24.42;70.32
51123;BME280;37162;41.724;13.346;2023-08-17T07:53:30;96866.44;;;24.44;70.33
51123;BME280;37162;41.724;13.346;2023-08-17T07:55:55;96858.56;;;24.42;70.58
51123;BME280;37162;41.724;13.346;2023-08-17T07:58:21;96858.56;;;24.47;70.49
51123;BME280;37162;41.724;13.346;2023-08-17T08:00:46;96857.16;;;24.50;70.39
51123;BME280;37162;41.724;13.346;2023-08-17T08:03:12;96859.84;;;24.55;70.64
51123;BME280;37162;41.724;13.346;2023-08-17T08:05:37;96865.03;;;24.57;70.15
51123;BME280;37162;41.724;13.346;2023-08-17T08:08:03;96863.63;;;24.59;70.05
51123;BME280;37162;41.724;13.346;2023-08-17T08:10:28;96860.91;;;24.59;70.14
51123;BME280;37162;41.724;13.346;2023-08-17T08:12:54;96862.28;;;24.62;70.28
51123;BME280;37162;41.724;13.346;2023-08-17T08:15:20;96868.22;;;24.64;70.03
51123;BME280;37162;41.724;13.346;2023-08-17T08:17:46;96864.41;;;24.65;70.03
51123;BME280;37162;41.724;13.346;2023-08-17T08:20:11;96864.97;;;24.67;70.00
51123;BME280;37162;41.724;13.346;2023-08-17T08:22:36;96861.66;;;24.70;70.03
51123;BME280;37162;41.724;13.346;2023-08-17T08:25:02;96871.44;;;24.76;70.53
51123;BME280;37162;41.724;13.346;2023-08-17T08:27:27;96869.53;;;24.77;69.83
51123;BME280;37162;41.724;13.346;2023-08-17T08:35:02;96867.06;;;24.80;69.65
51123;BME280;37162;41.724;13.346;2023-08-17T08:37:28;96871.41;;;24.81;69.64
51123;BME280;37162;41.724;13.346;2023-08-17T08:39:54;96879.28;;;24.83;69.62
51123;BME280;37162;41.724;13.346;2023-08-17T08:42:21;96876.28;;;24.84;69.56
51123;BME280;37162;41.724;13.346;2023-08-17T08:44:49;96872.47;;;24.85;69.46
51123;BME280;37162;41.724;13.346;2023-08-17T08:47:16;96868.66;;;24.86;69.57
51123;BME280;37162;41.724;13.346;2023-08-17T08:50:01;96874.59;;;24.88;69.33
51123;BME280;37162;41.724;13.346;2023-08-17T08:54:58;96868.38;;;24.88;69.27
51123;BME280;37162;41.724;13.346;2023-08-17T08:57:27;96867.81;;;24.91;69.20
51123;BME280;37162;41.724;13.346;2023-08-17T08:59:53;96871.34;;;24.91;69.18
51123;BME280;37162;41.724;13.346;2023-08-17T09:02:19;96874.31;;;24.95;69.17
51123;BME280;37162;41.724;13.346;2023-08-17T09:04:45;96861.28;;;24.92;69.08
51123;BME280;37162;41.724;13.346;2023-08-17T09:07:14;96868.06;;;24.94;68.83
51123;BME280;37162;41.724;13.346;2023-08-17T09:09:39;96853.13;;;24.92;69.08
51123;BME280;37162;41.724;13.346;2023-08-17T09:12:07;96865.81;;;25.02;69.01
51123;BME280;37162;41.724;13.346;2023-08-17T09:14:33;96858.78;;;25.01;68.94
51123;BME280;37162;41.724;13.346;2023-08-17T09:16:59;96861.75;;;25.04;68.82
51123;BME280;37162;41.724;13.346;2023-08-17T09:19:25;96861.19;;;25.02;68.62
51123;BME280;37162;41.724;13.346;2023-08-17T09:21:50;96864.72;;;25.08;68.83
51123;BME280;37162;41.724;13.346;2023-08-17T09:24:16;96857.41;;;25.03;68.60
51123;BME280;37162;41.724;13.346;2023-08-17T09:26:41;96862.56;;;25.10;68.77
51123;BME280;37162;41.724;13.346;2023-08-17T09:29:20;96860.34;;;25.12;68.58
51123;BME280;37162;41.724;13.346;2023-08-17T09:31:49;96854.91;;;25.12;68.63
51123;BME280;37162;41.724;13.346;2023-08-17T09:34:15;96850.00;;;25.14;68.43
51123;BME280;37162;41.724;13.346;2023-08-17T09:36:41;96852.44;;;25.15;68.58
51123;BME280;37162;41.724;13.346;2023-08-17T09:39:07;96849.47;;;25.12;68.45
51123;BME280;37162;41.724;13.346;2023-08-17T09:41:40;96845.69;;;25.13;68.55
51123;BME280;37162;41.724;13.346;2023-08-17T09:44:06;96849.16;;;25.18;68.16
51123;BME280;37162;41.724;13.346;2023-08-17T09:46:32;96848.63;;;25.16;68.15
51123;BME280;37162;41.724;13.346;2023-08-17T09:48:58;96841.25;;;25.22;68.35
51123;BME280;37162;41.724;13.346;2023-08-17T09:51:24;96843.69;;;25.23;68.50
51123;BME280;37162;41.724;13.346;2023-08-17T09:53:53;96839.84;;;25.24;68.07
51123;BME280;37162;41.724;13.346;2023-08-17T09:56:21;96832.25;;;25.27;68.09
51123;BME280;37162;41.724;13.346;2023-08-17T09:58:47;96834.66;;;25.28;68.13
51123;BME280;37162;41.724;13.346;2023-08-17T10:01:13;96829.75;;;25.30;68.07
51123;BME280;37162;41.724;13.346;2023-08-17T10:03:43;96830.56;;;25.31;68.09
51123;BME280;37162;41.724;13.346;2023-08-17T10:06:10;96826.47;;;25.33;68.05
51123;BME280;37162;41.724;13.346;2023-08-17T10:08:42;96821.53;;;25.35;67.89
51123;BME280;37162;41.724;13.346;2023-08-17T10:11:09;96830.50;;;25.36;68.07
51123;BME280;37162;41.724;13.346;2023-08-17T10:13:39;96819.41;;;25.32;67.86
51123;BME280;37162;41.724;13.346;2023-08-17T10:21:13;96822.03;;;25.42;67.73
51123;BME280;37162;41.724;13.346;2023-08-17T10:23:44;96806.88;;;25.36;67.78
51123;BME280;37162;41.724;13.346;2023-08-17T10:26:11;96824.47;;;25.44;67.60
51123;BME280;37162;41.724;13.346;2023-08-17T10:28:37;96819.25;;;25.47;67.47
51123;BME280;37162;41.724;13.346;2023-08-17T10:31:03;96822.53;;;25.44;67.46
51123;BME280;37162;41.724;13.346;2023-08-17T10:33:29;96821.41;;;25.51;67.42
51123;BME280;37162;41.724;13.346;2023-08-17T10:35:55;96812.72;;;25.48;67.67
51123;BME280;37162;41.724;13.346;2023-08-17T10:38:21;96803.75;;;25.48;67.48
51123;BME280;37162;41.724;13.346;2023-08-17T10:41:07;96804.25;;;25.55;67.46
51123;BME280;37162;41.724;13.346;2023-08-17T10:43:33;96805.03;;;25.56;67.43
51123;BME280;37162;41.724;13.346;2023-08-17T10:46:17;96801.22;;;25.57;67.36
51123;BME280;37162;41.724;13.346;2023-08-17T10:48:45;96802.84;;;25.58;67.25
51123;BME280;37162;41.724;13.346;2023-08-17T10:51:11;96799.00;;;25.59;67.28
51123;BME280;37162;41.724;13.346;2023-08-17T10:53:43;96792.81;;;25.53;67.19
51123;BME280;37162;41.724;13.346;2023-08-17T10:56:13;96794.66;;;25.58;67.42
51123;BME280;37162;41.724;13.346;2023-08-17T10:58:39;96797.63;;;25.61;67.04
51123;BME280;37162;41.724;13.346;2023-08-17T11:01:04;96791.09;;;25.62;67.15
51123;BME280;37162;41.724;13.346;2023-08-17T11:03:30;96795.72;;;25.62;66.96
51123;BME280;37162;41.724;13.346;2023-08-17T11:05:56;96789.97;;;25.63;66.75
51123;BME280;37162;41.724;13.346;2023-08-17T11:08:31;96796.47;;;25.67;67.08
51123;BME280;37162;41.724;13.346;2023-08-17T11:10:57;96785.59;;;25.67;67.03
51123;BME280;37162;41.724;13.346;2023-08-17T11:13:30;96789.66;;;25.70;67.17
51123;BME280;37162;41.724;13.346;2023-08-17T11:15:58;96785.50;;;25.78;67.97
51123;BME280;37162;41.724;13.346;2023-08-17T11:18:23;96775.44;;;25.73;67.22
51123;BME280;37162;41.724;13.346;2023-08-17T11:20:49;96783.09;;;25.76;66.98
51123;BME280;37162;41.724;13.346;2023-08-17T11:23:15;96779.25;;;25.77;67.18
51123;BME280;37162;41.724;13.346;2023-08-17T11:25:41;96777.09;;;25.74;67.04
51123;BME280;37162;41.724;13.346;2023-08-17T11:28:07;96774.91;;;25.76;67.33
51123;BME280;37162;41.724;13.346;2023-08-17T11:30:36;96787.41;;;25.77;67.15
51123;BME280;37162;41.724;13.346;2023-08-17T11:33:04;96780.88;;;25.78;66.98
51123;BME280;37162;41.724;13.346;2023-08-17T11:35:30;96772.69;;;25.78;66.97
51123;BME280;37162;41.724;13.346;2023-08-17T11:37:56;96775.44;;;25.78;67.04
51123;BME280;37162;41.724;13.346;2023-08-17T11:40:22;96769.16;;;25.78;67.13
51123;BME280;37162;41.724;13.346;2023-08-17T11:42:48;96764.53;;;25.78;66.56
51123;BME280;37162;41.724;13.346;2023-08-17T11:45:13;96761.00;;;25.78;66.81
51123;BME280;37162;41.724;13.346;2023-08-17T11:47:40;96761.00;;;25.78;67.23
51123;BME280;37162;41.724;13.346;2023-08-17T11:50:08;96761.00;;;25.78;66.91
51123;BME280;37162;41.724;13.346;2023-08-17T11:52:35;96747.44;;;25.72;66.63
51123;BME280;37162;41.724;13.346;2023-08-17T11:55:04;96748.50;;;25.77;67.00
51123;BME280;37162;41.724;13.346;2023-08-17T11:57:34;96741.19;;;25.72;66.96
51123;BME280;37162;41.724;13.346;2023-08-17T12:00:00;96743.88;;;25.77;66.77
51123;BME280;37162;41.724;13.346;2023-08-17T12:02:27;96742.25;;;25.76;66.78
51123;BME280;37162;41.724;13.346;2023-08-17T12:04:54;96747.13;;;25.79;66.92
51123;BME280;37162;41.724;13.346;2023-08-17T12:07:23;96723.25;;;25.71;67.08
51123;BME280;37162;41.724;13.346;2023-08-17T12:09:49;96734.94;;;25.71;66.75
51123;BME280;37162;41.724;13.346;2023-08-17T12:12:36;96734.38;;;25.74;66.79
51123;BME280;37162;41.724;13.346;2023-08-17T12:15:03;96724.34;;;25.70;67.28
51123;BME280;37162;41.724;13.346;2023-08-17T12:17:29;96732.72;;;25.73;67.16
51123;BME280;37162;41.724;13.346;2023-08-17T12:19:55;96739.81;;;25.74;67.07
51123;BME280;37162;41.724;13.346;2023-08-17T12:22:24;96742.78;;;25.73;66.93
51123;BME280;37162;41.724;13.346;2023-08-17T12:24:51;96736.84;;;25.71;67.21
51123;BME280;37162;41.724;13.346;2023-08-17T12:27:17;96722.50;;;25.65;67.37
51123;BME280;37162;41.724;13.346;2023-08-17T12:29:50;96730.91;;;25.69;67.08
51123;BME280;37162;41.724;13.346;2023-08-17T12:32:16;96725.22;;;25.65;67.29
51123;BME280;37162;41.724;13.346;2023-08-17T12:34:42;96727.19;;;25.60;67.29
51123;BME280;37162;41.724;13.346;2023-08-17T12:37:11;96720.03;;;25.64;67.37
51123;BME280;37162;41.724;13.346;2023-08-17T12:39:37;96714.59;;;25.64;67.31
51123;BME280;37162;41.724;13.346;2023-08-17T12:42:04;96702.41;;;25.61;67.28
51123;BME280;37162;41.724;13.346;2023-08-17T12:44:30;96707.28;;;25.64;67.27
51123;BME280;37162;41.724;13.346;2023-08-17T12:46:56;96707.84;;;25.61;67.26
51123;BME280;37162;41.724;13.346;2023-08-17T12:49:23;96705.41;;;25.60;67.33
51123;BME280;37162;41.724;13.346;2023-08-17T12:51:48;96708.94;;;25.60;67.26
51123;BME280;37162;41.724;13.346;2023-08-17T12:54:14;96704.59;;;25.59;67.27
51123;BME280;37162;41.724;13.346;2023-08-17T12:56:39;96693.19;;;25.57;67.33
51123;BME280;37162;41.724;13.346;2023-08-17T12:59:05;96693.19;;;25.57;67.10